createdAt,value
2019-05-16T00:02:37.699Z,2.03
2019-05-16T00:07:41.588Z,2.00
2019-05-16T00:12:48.413Z,2.10
2019-05-16T00:17:51.761Z,1.87
2019-05-16T00:22:55.977Z,2.37
2019-05-16T00:28:00.246Z,2.30
2019-05-16T00:33:04.481Z,2.30
2019-05-16T00:38:08.956Z,2.80
2019-05-16T00:43:13.265Z,2.60
2019-05-16T00:48:18.245Z,2.33
2019-05-16T00:53:22.584Z,2.40
2019-05-16T00:58:28.487Z,3.13
2019-05-16T01:03:32.844Z,2.47
2019-05-16T01:08:38.534Z,2.70
2019-05-16T01:13:42.911Z,2.70
2019-05-16T01:18:48.578Z,2.23
2019-05-16T01:23:53.089Z,3.60
2019-05-16T01:28:57.712Z,2.87
2019-05-16T01:34:02.035Z,2.73
2019-05-16T01:39:07.944Z,2.70
2019-05-16T01:44:12.494Z,3.03
2019-05-16T01:49:18.714Z,3.10
2019-05-16T01:54:22.726Z,3.20
2019-05-16T01:59:28.380Z,3.17
2019-05-16T02:04:32.712Z,3.13
2019-05-16T02:09:38.436Z,2.70
2019-05-16T02:14:42.855Z,2.67
2019-05-16T02:19:48.580Z,2.80
2019-05-16T02:24:52.888Z,3.27
2019-05-16T02:29:57.129Z,3.07
2019-05-16T02:35:01.514Z,3.47
2019-05-16T02:40:07.342Z,3.03
2019-05-16T02:45:12.003Z,3.67
2019-05-16T02:50:17.789Z,3.33
2019-05-16T02:55:22.031Z,3.10
2019-05-16T03:00:36.967Z,3.27
2019-05-16T03:05:43.306Z,3.40
2019-05-16T03:10:51.761Z,3.00
2019-05-16T03:15:55.250Z,3.40
2019-05-16T03:21:02.015Z,3.33
2019-05-16T03:26:06.219Z,3.33
2019-05-16T03:31:14.798Z,3.20
2019-05-16T03:36:16.639Z,3.20
2019-05-16T03:41:21.548Z,3.20
2019-05-16T03:46:25.983Z,3.50
2019-05-16T03:51:31.010Z,3.47
2019-05-16T03:56:35.407Z,3.43
2019-05-16T04:01:41.011Z,3.00
2019-05-16T04:06:45.433Z,3.40
2019-05-16T04:11:50.944Z,3.30
2019-05-16T04:16:55.408Z,3.50
2019-05-16T04:22:01.372Z,4.00
2019-05-16T04:27:05.589Z,3.80
2019-05-16T04:32:11.048Z,3.13
2019-05-16T04:37:15.451Z,3.07
2019-05-16T04:42:21.441Z,2.90
2019-05-16T04:47:25.755Z,3.00
2019-05-16T04:52:30.681Z,3.23
2019-05-16T04:57:35.140Z,2.43
2019-05-16T05:02:41.897Z,2.43
2019-05-16T05:07:45.332Z,2.80
2019-05-16T05:12:51.565Z,2.83
2019-05-16T05:17:55.536Z,2.50
2019-05-16T05:23:00.450Z,2.83
2019-05-16T05:28:04.776Z,2.80
2019-05-16T05:33:10.154Z,2.60
2019-05-16T05:38:14.446Z,2.40
2019-05-16T05:43:21.151Z,2.77
2019-05-16T05:48:24.648Z,3.00
2019-05-16T05:53:30.046Z,14.40
2019-05-16T05:58:34.610Z,3.17
2019-05-16T06:03:39.899Z,3.27
2019-05-16T06:08:44.158Z,3.80
2019-05-16T06:13:50.022Z,2.90
2019-05-16T06:18:56.735Z,2.73
2019-05-16T06:24:00.500Z,2.77
2019-05-16T06:29:04.778Z,2.80
2019-05-16T06:34:14.852Z,2.23
2019-05-16T06:39:14.938Z,2.53
2019-05-16T06:44:20.303Z,2.93
2019-05-16T06:49:24.630Z,2.50
2019-05-16T06:54:29.922Z,2.33
2019-05-16T06:59:34.415Z,2.80
2019-05-16T07:04:39.814Z,2.50
2019-05-16T07:09:57.186Z,2.80
2019-05-16T07:14:50.665Z,2.50
2019-05-16T07:19:54.983Z,2.47
2019-05-16T07:24:59.863Z,2.27
2019-05-16T07:30:04.531Z,2.80
2019-05-16T07:35:09.743Z,3.13
2019-05-16T07:40:20.095Z,3.17
2019-05-16T07:45:21.032Z,3.67
2019-05-16T07:50:25.221Z,3.60
2019-05-16T07:55:30.825Z,4.00
2019-05-16T08:00:49.820Z,4.43
2019-05-16T08:05:41.395Z,4.57
2019-05-16T08:10:46.889Z,3.90
2019-05-16T08:15:51.273Z,5.27
2019-05-16T08:20:55.534Z,4.73
2019-05-16T08:26:01.195Z,4.43
2019-05-16T08:31:05.723Z,4.77
2019-05-16T08:46:22.035Z,4.90
2019-05-16T08:51:26.258Z,4.67
2019-05-16T08:56:31.790Z,3.80
2019-05-16T09:01:36.344Z,3.20
2019-05-16T09:06:42.426Z,3.90
2019-05-16T09:10:11.000Z,5.07
2019-05-16T09:10:39.169Z,4.73
2019-05-16T09:11:48.752Z,3.47
2019-05-16T09:16:52.454Z,3.57
2019-05-16T09:21:58.052Z,3.53
2019-05-16T09:27:02.509Z,3.07
2019-05-16T09:32:15.843Z,2.93
2019-05-16T09:37:12.685Z,2.57
2019-05-16T09:42:17.243Z,2.43
2019-05-16T09:47:21.543Z,3.42
2019-05-16T09:52:27.379Z,2.57
2019-05-16T09:57:31.704Z,2.70
2019-05-16T10:02:36.740Z,2.95
2019-05-16T10:07:41.095Z,2.80
2019-05-16T10:12:45.320Z,2.73
2019-05-16T10:17:49.570Z,3.77
2019-05-16T10:22:53.806Z,3.07
2019-05-16T10:27:58.048Z,2.98
2019-05-16T10:33:02.291Z,3.27
2019-05-16T10:38:06.519Z,3.33
2019-05-16T10:43:10.792Z,2.90
2019-05-16T10:48:17.274Z,3.80
2019-05-16T10:53:51.471Z,3.60
2019-05-16T10:58:36.687Z,3.22
2019-05-16T11:03:32.894Z,2.83
2019-05-16T11:08:39.661Z,3.12
2019-05-16T11:13:43.099Z,3.92
2019-05-16T11:18:47.358Z,3.15
2019-05-16T11:23:51.590Z,2.87
2019-05-16T11:28:56.760Z,2.70
2019-05-16T11:34:01.073Z,2.47
2019-05-16T11:39:08.599Z,2.60
2019-05-16T11:44:13.101Z,3.10
2019-05-16T11:49:17.374Z,2.70
2019-05-16T11:54:21.641Z,4.10
2019-05-16T11:59:25.876Z,3.15
2019-05-16T12:04:30.127Z,2.67
2019-05-16T12:09:42.716Z,3.20
2019-05-16T12:14:40.372Z,3.20
2019-05-16T12:19:47.528Z,3.17
2019-05-16T12:24:50.603Z,3.72
2019-05-16T12:29:58.707Z,3.60
2019-05-16T12:35:00.803Z,3.95
2019-05-16T12:40:05.465Z,4.65
2019-05-16T12:45:10.201Z,5.58
2019-05-16T12:50:17.790Z,5.60
2019-05-16T12:55:21.331Z,6.75
2019-05-16T13:00:27.654Z,6.67
2019-05-16T13:05:31.903Z,7.30
2019-05-16T13:10:38.048Z,7.28
2019-05-16T13:15:42.552Z,9.00
2019-05-16T13:20:47.017Z,9.53
2019-05-16T13:25:51.369Z,8.90
2019-05-16T13:30:57.699Z,10.25
2019-05-16T13:36:01.579Z,18.00
2019-05-16T13:41:07.502Z,11.78
2019-05-16T13:46:12.130Z,10.28
2019-05-16T13:51:18.913Z,10.40
2019-05-16T13:56:22.345Z,11.15
2019-05-16T14:01:27.816Z,11.38
2019-05-16T14:06:32.218Z,10.88
2019-05-16T14:11:36.788Z,13.85
2019-05-16T14:16:41.050Z,11.43
2019-05-16T14:21:47.845Z,11.30
2019-05-16T14:26:51.286Z,11.48
2019-05-16T14:31:56.779Z,11.73
2019-05-16T14:37:01.069Z,11.75
2019-05-16T14:42:05.324Z,12.65
2019-05-16T14:47:09.595Z,11.45
2019-05-16T14:52:13.953Z,11.78
2019-05-16T14:57:18.221Z,16.12
2019-05-16T15:02:22.638Z,13.93
2019-05-16T15:07:27.653Z,16.40
2019-05-16T15:12:32.034Z,16.87
2019-05-16T15:17:36.299Z,15.68
2019-05-16T15:22:40.565Z,17.70
2019-05-16T15:27:44.831Z,16.17
2019-05-16T15:32:49.113Z,17.20
2019-05-16T15:37:53.363Z,15.40
2019-05-16T15:42:59.130Z,16.77
2019-05-16T15:48:03.684Z,15.40
2019-05-16T15:53:08.182Z,14.63
2019-05-16T15:58:12.601Z,14.43
2019-05-16T16:03:17.744Z,15.80
2019-05-16T16:08:22.199Z,15.20
2019-05-16T16:13:26.937Z,19.45
2019-05-16T16:18:31.342Z,16.90
2019-05-16T16:23:37.303Z,49.83
2019-05-16T16:28:41.600Z,92.12
2019-05-16T16:33:46.067Z,23.12
2019-05-16T16:38:50.320Z,61.48
2019-05-16T16:43:56.938Z,21.60
2019-05-16T16:49:00.759Z,19.55
2019-05-16T16:54:07.461Z,16.55
2019-05-16T16:59:10.993Z,17.05
2019-05-16T17:04:17.504Z,17.65
2019-05-16T17:09:23.196Z,16.67
2019-05-16T17:14:27.526Z,17.10
2019-05-16T17:19:31.768Z,17.87
2019-05-16T17:24:36.637Z,17.55
2019-05-16T17:29:40.954Z,18.65
2019-05-16T17:34:45.206Z,18.62
2019-05-16T17:39:49.481Z,109.92
2019-05-16T17:44:53.757Z,20.10
2019-05-16T17:49:58.040Z,19.42
2019-05-16T17:55:02.930Z,19.55
2019-05-16T18:00:12.813Z,20.48
2019-05-16T18:05:14.171Z,19.48
2019-05-16T18:10:19.992Z,20.23
2019-05-16T18:15:24.558Z,20.50
2019-05-16T18:20:29.107Z,20.25
2019-05-16T18:25:33.396Z,23.45
2019-05-16T18:30:37.687Z,22.80
2019-05-16T18:35:41.962Z,47.73
2019-05-16T18:40:47.522Z,27.65
2019-05-16T18:45:52.038Z,25.10
2019-05-16T18:50:57.788Z,23.42
2019-05-16T18:56:03.357Z,24.98
2019-05-16T19:01:07.866Z,23.00
2019-05-16T19:06:17.017Z,22.27
2019-05-16T19:11:21.325Z,20.32
2019-05-16T19:16:26.230Z,20.45
2019-05-16T19:21:31.085Z,21.30
2019-05-16T19:26:37.232Z,18.12
2019-05-16T19:31:41.392Z,19.48
2019-05-16T19:36:47.051Z,20.95
2019-05-16T19:41:51.537Z,19.57
2019-05-16T19:46:57.513Z,19.10
2019-05-16T19:52:01.873Z,18.95
2019-05-16T19:57:07.190Z,17.52
2019-05-16T20:02:11.788Z,17.52
2019-05-16T20:07:16.796Z,16.85
2019-05-16T20:12:21.318Z,17.82
2019-05-16T20:17:26.947Z,19.92
2019-05-16T20:22:31.351Z,19.00
2019-05-16T20:27:36.853Z,20.30
2019-05-16T20:32:41.300Z,24.30
2019-05-16T20:37:47.316Z,21.85
2019-05-16T20:42:51.738Z,22.22
2019-05-16T20:48:07.993Z,19.40
2019-05-16T20:53:01.956Z,18.80
2019-05-16T20:58:07.695Z,18.52
2019-05-16T21:03:12.295Z,28.10
2019-05-16T21:08:17.282Z,18.92
2019-05-16T21:13:21.697Z,20.72
2019-05-16T21:18:25.949Z,18.90
2019-05-16T21:23:30.235Z,21.23
2019-05-16T21:28:36.777Z,34.50
2019-05-16T21:33:40.461Z,21.10
2019-05-16T21:38:46.808Z,17.80
2019-05-16T21:43:50.819Z,18.37
2019-05-16T21:48:56.722Z,19.73
2019-05-16T21:54:01.092Z,19.57
2019-05-16T21:59:06.975Z,19.98
2019-05-16T22:04:11.395Z,18.92
2019-05-16T22:09:15.647Z,19.97
2019-05-16T22:14:24.318Z,20.30
2019-05-16T22:19:28.576Z,21.50
2019-05-16T22:24:32.832Z,21.60
2019-05-16T22:29:37.251Z,21.07
2019-05-16T22:34:41.508Z,20.97
2019-05-16T22:39:45.825Z,21.10
2019-05-16T22:44:50.176Z,22.87
2019-05-16T22:49:56.602Z,21.75
2019-05-16T22:55:00.437Z,22.77
2019-05-16T23:00:07.567Z,22.93
2019-05-16T23:05:11.272Z,23.57
2019-05-16T23:10:16.643Z,24.20
2019-05-16T23:15:21.230Z,23.77
2019-05-16T23:20:27.539Z,25.53
2019-05-16T23:25:31.462Z,23.30
2019-05-16T23:30:36.596Z,23.50
2019-05-16T23:35:40.993Z,24.13
2019-05-16T23:40:46.792Z,24.53
2019-05-16T23:45:51.217Z,23.63
2019-05-16T23:50:56.927Z,23.50
2019-05-16T23:56:01.311Z,22.57
